createdAt,value
2018-01-22T00:00:11.706Z,91.33
2018-01-22T00:01:11.670Z,90.48
2018-01-22T00:02:11.649Z,91.71
2018-01-22T00:03:11.630Z,91.24
2018-01-22T00:04:11.603Z,90.39
2018-01-22T00:05:11.589Z,90.48
2018-01-22T00:06:11.559Z,91.05
2018-01-22T00:07:11.535Z,90.67
2018-01-22T00:08:11.518Z,91.52
2018-01-22T00:09:11.490Z,90.77
2018-01-22T00:10:11.465Z,90.67
2018-01-22T00:11:11.451Z,90.86
2018-01-22T00:12:11.421Z,90.58
2018-01-22T00:13:11.403Z,90.39
2018-01-22T00:14:11.381Z,90.48
2018-01-22T00:15:11.351Z,91.71
2018-01-22T00:16:11.330Z,90.77
2018-01-22T00:17:11.301Z,90.86
2018-01-22T00:18:11.279Z,90.77
2018-01-22T00:19:11.258Z,90.77
2018-01-22T00:20:11.239Z,90.67
2018-01-22T00:21:11.212Z,90.95
2018-01-22T00:22:11.189Z,90.39
2018-01-22T00:23:11.169Z,90.86
2018-01-22T00:24:11.143Z,90.95
2018-01-22T00:25:11.119Z,90.48
2018-01-22T00:26:11.112Z,90.86
2018-01-22T00:27:11.080Z,90.58
2018-01-22T00:28:11.060Z,90.77
2018-01-22T00:29:11.027Z,90.39
2018-01-22T00:30:11.005Z,91.71
2018-01-22T00:31:10.989Z,90.67
2018-01-22T00:32:11.019Z,90.67
2018-01-22T00:33:10.940Z,91.24
2018-01-22T00:34:10.919Z,90.48
2018-01-22T00:35:10.891Z,90.48
2018-01-22T00:36:11.020Z,90.48
2018-01-22T00:37:10.845Z,90.67
2018-01-22T00:38:10.828Z,90.58
2018-01-22T00:39:10.799Z,90.39
2018-01-22T00:40:10.780Z,90.67
2018-01-22T00:41:10.759Z,91.52
2018-01-22T00:42:10.740Z,91.43
2018-01-22T00:43:10.707Z,91.24
2018-01-22T00:44:10.687Z,90.77
2018-01-22T00:45:10.660Z,90.86
2018-01-22T00:46:10.640Z,91.43
2018-01-22T00:47:10.621Z,90.95
2018-01-22T00:48:10.599Z,91.24
2018-01-22T00:49:10.569Z,90.77
2018-01-22T00:50:10.546Z,90.95
2018-01-22T00:51:10.519Z,90.58
2018-01-22T00:52:10.497Z,90.86
2018-01-22T00:53:10.473Z,90.86
2018-01-22T00:54:10.459Z,90.77
2018-01-22T00:55:10.429Z,90.86
2018-01-22T00:56:10.409Z,91.05
2018-01-22T00:57:10.380Z,90.77
2018-01-22T00:58:10.391Z,90.86
2018-01-22T00:59:10.343Z,90.67
2018-01-22T01:00:10.322Z,91.24
2018-01-22T01:01:10.297Z,90.77
2018-01-22T01:02:10.270Z,91.05
2018-01-22T01:03:10.246Z,90.77
2018-01-22T01:04:10.222Z,90.77
2018-01-22T01:05:10.196Z,90.67
2018-01-22T01:06:10.177Z,90.67
2018-01-22T01:07:10.156Z,90.67
2018-01-22T01:08:10.129Z,90.77
2018-01-22T01:09:10.109Z,90.67
2018-01-22T01:10:10.079Z,90.77
2018-01-22T01:11:10.054Z,90.95
2018-01-22T01:12:10.032Z,90.77
2018-01-22T01:13:10.008Z,90.77
2018-01-22T01:14:09.990Z,91.05
2018-01-22T01:15:09.965Z,90.77
2018-01-22T01:16:09.937Z,90.77
2018-01-22T01:17:09.916Z,91.14
2018-01-22T01:18:09.889Z,90.67
2018-01-22T01:19:09.869Z,91.05
2018-01-22T01:20:09.850Z,90.58
2018-01-22T01:21:09.829Z,90.58
2018-01-22T01:22:09.797Z,91.14
2018-01-22T01:23:09.777Z,91.43
2018-01-22T01:24:09.760Z,91.33
2018-01-22T01:25:09.727Z,90.67
2018-01-22T01:26:09.707Z,91.43
2018-01-22T01:27:09.680Z,90.67
2018-01-22T01:28:09.661Z,91.62
2018-01-22T01:29:09.641Z,91.33
2018-01-22T01:30:09.610Z,91.24
2018-01-22T01:31:09.590Z,91.14
2018-01-22T01:32:09.566Z,91.33
2018-01-22T01:33:09.542Z,91.14
2018-01-22T01:34:09.523Z,91.43
2018-01-22T01:35:09.493Z,91.24
2018-01-22T01:36:09.471Z,90.95
2018-01-22T01:37:09.448Z,91.43
2018-01-22T01:38:09.435Z,91.52
2018-01-22T01:39:09.398Z,91.33
2018-01-22T01:40:09.380Z,91.14
2018-01-22T01:41:09.353Z,91.14
2018-01-22T01:42:09.330Z,91.33
2018-01-22T01:43:09.309Z,90.95
2018-01-22T01:44:09.285Z,91.14
2018-01-22T01:45:09.259Z,90.67
2018-01-22T01:46:09.233Z,90.48
2018-01-22T01:47:09.218Z,90.95
2018-01-22T01:48:09.189Z,91.14
2018-01-22T01:49:09.170Z,90.53
2018-01-22T01:50:09.140Z,91.05
2018-01-22T01:51:09.120Z,90.77
2018-01-22T01:52:09.100Z,90.72
2018-01-22T01:53:09.070Z,91.05
2018-01-22T01:54:09.055Z,91.05
2018-01-22T01:55:09.077Z,90.86
2018-01-22T01:56:09.001Z,91.24
2018-01-22T01:57:08.982Z,90.86
2018-01-22T01:58:08.950Z,90.86
2018-01-22T01:59:08.930Z,90.58
2018-01-22T02:00:08.909Z,91.05
2018-01-22T02:01:08.896Z,90.29
2018-01-22T02:02:08.859Z,90.86
2018-01-22T02:03:08.832Z,90.48
2018-01-22T02:04:08.809Z,91.24
2018-01-22T02:05:08.839Z,90.29
2018-01-22T02:06:08.767Z,91.05
2018-01-22T02:07:08.775Z,90.95
2018-01-22T02:08:08.714Z,91.10
2018-01-22T02:09:08.728Z,90.77
2018-01-22T02:10:08.670Z,91.33
2018-01-22T02:11:08.743Z,90.58
2018-01-22T02:12:08.621Z,91.05
2018-01-22T02:13:08.646Z,90.86
2018-01-22T02:14:08.573Z,90.86
2018-01-22T02:15:08.599Z,90.86
2018-01-22T02:16:08.530Z,90.53
2018-01-22T02:17:08.510Z,90.77
2018-01-22T02:18:08.481Z,90.86
2018-01-22T02:19:08.506Z,90.91
2018-01-22T02:20:08.436Z,90.86
2018-01-22T02:21:08.414Z,90.95
2018-01-22T02:22:08.390Z,90.91
2018-01-22T02:23:08.371Z,90.77
2018-01-22T02:24:08.346Z,90.67
2018-01-22T02:25:08.326Z,90.67
2018-01-22T02:26:08.291Z,90.86
2018-01-22T02:27:08.269Z,91.24
2018-01-22T02:28:08.240Z,90.86
2018-01-22T02:29:08.220Z,90.95
2018-01-22T02:30:08.203Z,90.95
2018-01-22T02:31:08.172Z,91.05
2018-01-22T02:32:08.147Z,90.86
2018-01-22T02:33:08.125Z,90.86
2018-01-22T02:34:08.100Z,90.48
2018-01-22T02:35:08.077Z,90.95
2018-01-22T02:36:08.053Z,90.77
2018-01-22T02:37:08.039Z,90.86
2018-01-22T02:38:08.008Z,90.48
2018-01-22T02:39:07.982Z,91.24
2018-01-22T02:40:07.961Z,90.95
2018-01-22T02:41:07.944Z,90.67
2018-01-22T02:42:07.919Z,90.86
2018-01-22T02:43:07.889Z,90.86
2018-01-22T02:44:07.866Z,90.67
2018-01-22T02:45:07.844Z,91.10
2018-01-22T02:46:07.820Z,90.25
2018-01-22T02:47:07.796Z,90.34
2018-01-22T02:48:07.771Z,90.53
2018-01-22T02:49:07.753Z,90.63
2018-01-22T02:50:07.728Z,90.91
2018-01-22T02:51:07.704Z,90.91
2018-01-22T02:52:07.682Z,90.53
2018-01-22T02:53:07.660Z,90.91
2018-01-22T02:54:07.637Z,90.53
2018-01-22T02:55:07.607Z,90.53
2018-01-22T02:56:07.585Z,90.44
2018-01-22T02:57:07.568Z,90.53
2018-01-22T02:58:07.540Z,90.91
2018-01-22T02:59:07.519Z,90.63
2018-01-22T03:00:07.490Z,90.53
2018-01-22T03:01:07.469Z,91.19
2018-01-22T03:02:07.448Z,91.00
2018-01-22T03:03:07.419Z,90.91
2018-01-22T03:04:07.397Z,91.10
2018-01-22T03:05:07.370Z,90.81
2018-01-22T03:06:07.348Z,90.81
2018-01-22T03:07:07.332Z,90.53
2018-01-22T03:08:07.312Z,90.53
2018-01-22T03:09:07.280Z,90.63
2018-01-22T03:10:07.261Z,90.91
2018-01-22T03:11:07.230Z,90.91
2018-01-22T03:12:07.207Z,90.81
2018-01-22T03:13:07.190Z,90.72
2018-01-22T03:14:07.165Z,90.81
2018-01-22T03:15:07.137Z,90.53
2018-01-22T03:16:07.120Z,90.81
2018-01-22T03:17:07.095Z,91.19
2018-01-22T03:18:07.065Z,90.63
2018-01-22T03:19:07.051Z,90.91
2018-01-22T03:20:07.020Z,90.44
2018-01-22T03:21:06.994Z,90.72
2018-01-22T03:22:06.969Z,90.44
2018-01-22T03:23:06.947Z,90.44
2018-01-22T03:24:06.925Z,90.72
2018-01-22T03:25:06.899Z,90.81
2018-01-22T03:26:06.876Z,90.25
2018-01-22T03:27:06.850Z,90.44
2018-01-22T03:28:06.830Z,90.81
2018-01-22T03:29:06.809Z,90.63
2018-01-22T03:30:06.781Z,90.81
2018-01-22T03:31:06.761Z,90.63
2018-01-22T03:32:06.740Z,90.44
2018-01-22T03:33:06.710Z,90.25
2018-01-22T03:34:06.691Z,90.81
2018-01-22T03:35:06.677Z,90.81
2018-01-22T03:36:06.640Z,90.91
2018-01-22T03:37:06.619Z,90.53
2018-01-22T03:38:06.600Z,90.53
2018-01-22T03:39:06.571Z,91.00
2018-01-22T03:40:06.554Z,90.81
2018-01-22T03:41:06.523Z,90.53
2018-01-22T03:42:06.499Z,90.91
2018-01-22T03:43:06.476Z,90.72
2018-01-22T03:44:06.460Z,90.25
2018-01-22T03:45:06.432Z,90.81
2018-01-22T03:46:06.410Z,90.63
2018-01-22T03:47:06.380Z,90.53
2018-01-22T03:48:06.359Z,90.91
2018-01-22T03:49:06.339Z,90.81
2018-01-22T03:50:06.310Z,90.72
2018-01-22T03:51:06.290Z,90.81
2018-01-22T03:52:06.271Z,90.34
2018-01-22T03:53:06.247Z,90.44
2018-01-22T03:54:06.219Z,90.81
2018-01-22T03:55:06.194Z,90.91
2018-01-22T03:56:06.169Z,91.00
2018-01-22T03:57:06.199Z,90.72
2018-01-22T03:58:06.126Z,90.53
2018-01-22T03:59:06.100Z,90.44
2018-01-22T04:00:06.077Z,91.00
2018-01-22T04:01:06.051Z,90.44
2018-01-22T04:02:06.030Z,90.91
2018-01-22T04:03:06.006Z,90.72
2018-01-22T04:04:05.990Z,90.81
2018-01-22T04:05:05.961Z,91.05
2018-01-22T04:06:05.933Z,90.53
2018-01-22T04:07:05.910Z,90.81
2018-01-22T04:08:05.950Z,90.67
2018-01-22T04:09:05.869Z,90.81
2018-01-22T04:10:05.881Z,90.67
2018-01-22T04:11:05.820Z,91.19
2018-01-22T04:12:06.100Z,90.15
2018-01-22T04:13:05.770Z,90.44
2018-01-22T04:14:05.750Z,90.53
2018-01-22T04:15:05.722Z,90.44
2018-01-22T04:16:05.782Z,90.44
2018-01-22T04:17:05.676Z,90.53
2018-01-22T04:18:05.661Z,90.25
2018-01-22T04:19:05.629Z,90.63
2018-01-22T04:20:05.609Z,90.25
2018-01-22T04:21:05.581Z,90.72
2018-01-22T04:22:05.671Z,90.53
2018-01-22T04:23:05.539Z,90.63
2018-01-22T04:24:05.520Z,90.44
2018-01-22T04:25:05.488Z,90.39
2018-01-22T04:26:05.465Z,90.53
2018-01-22T04:27:05.450Z,90.34
2018-01-22T04:28:05.424Z,90.72
2018-01-22T04:29:05.397Z,90.34
2018-01-22T04:30:05.381Z,90.34
2018-01-22T04:31:05.350Z,90.34
2018-01-22T04:32:05.325Z,90.34
2018-01-22T04:33:05.303Z,90.72
2018-01-22T04:34:05.290Z,90.72
2018-01-22T04:35:05.260Z,90.81
2018-01-22T04:36:05.230Z,91.00
2018-01-22T04:37:05.210Z,90.72
2018-01-22T04:38:05.191Z,90.81
2018-01-22T04:39:05.159Z,90.53
2018-01-22T04:40:05.139Z,90.81
2018-01-22T04:41:05.114Z,90.72
2018-01-22T04:42:05.090Z,90.44
2018-01-22T04:43:05.066Z,91.10
2018-01-22T04:44:05.059Z,90.53
2018-01-22T04:45:05.020Z,91.00
2018-01-22T04:46:04.996Z,91.00
2018-01-22T04:47:04.977Z,91.00
2018-01-22T04:48:04.949Z,90.72
2018-01-22T04:49:04.942Z,90.63
2018-01-22T04:50:04.909Z,90.81
2018-01-22T04:51:04.883Z,91.00
2018-01-22T04:52:04.861Z,90.81
2018-01-22T04:53:04.839Z,90.81
2018-01-22T04:54:04.811Z,90.63
2018-01-22T04:55:04.801Z,90.72
2018-01-22T04:56:04.765Z,90.63
2018-01-22T04:57:04.739Z,90.44
2018-01-22T04:58:04.724Z,90.53
2018-01-22T04:59:04.691Z,90.63
2018-01-22T05:00:04.673Z,90.34
2018-01-22T05:01:04.649Z,90.53
2018-01-22T05:02:04.621Z,90.63
2018-01-22T05:03:04.602Z,90.44
2018-01-22T05:04:04.580Z,90.44
2018-01-22T05:05:04.560Z,90.25
2018-01-22T05:06:04.529Z,90.63
2018-01-22T05:07:04.507Z,90.81
2018-01-22T05:08:04.480Z,90.44
2018-01-22T05:09:04.460Z,90.72
2018-01-22T05:10:04.435Z,90.72
2018-01-22T05:11:04.410Z,90.63
2018-01-22T05:12:04.386Z,90.81
2018-01-22T05:13:04.364Z,90.63
2018-01-22T05:14:04.339Z,90.63
2018-01-22T05:15:04.318Z,90.63
2018-01-22T05:16:04.293Z,90.91
2018-01-22T05:17:04.274Z,90.44
2018-01-22T05:18:04.249Z,90.81
2018-01-22T05:19:04.224Z,90.81
2018-01-22T05:20:04.203Z,90.63
2018-01-22T05:21:04.178Z,90.63
2018-01-22T05:22:04.154Z,90.67
2018-01-22T05:23:04.129Z,90.63
2018-01-22T05:24:04.105Z,90.72
2018-01-22T05:25:04.137Z,90.81
2018-01-22T05:26:04.057Z,90.63
2018-01-22T05:27:04.039Z,90.44
2018-01-22T05:28:04.015Z,90.48
2018-01-22T05:29:03.989Z,90.10
2018-01-22T05:30:03.969Z,89.87
2018-01-22T05:31:03.946Z,90.10
2018-01-22T05:32:03.919Z,89.91
2018-01-22T05:33:03.899Z,89.63
2018-01-22T05:34:03.872Z,89.82
2018-01-22T05:35:03.852Z,89.82
2018-01-22T05:36:03.824Z,89.63
2018-01-22T05:37:03.802Z,90.48
2018-01-22T05:38:03.779Z,89.91
2018-01-22T05:39:03.754Z,90.10
2018-01-22T05:40:03.733Z,89.63
2018-01-22T05:41:03.716Z,90.01
2018-01-22T05:42:03.686Z,90.01
2018-01-22T05:43:03.714Z,89.82
2018-01-22T05:44:03.647Z,89.91
2018-01-22T05:45:03.620Z,90.58
2018-01-22T05:46:03.597Z,90.48
2018-01-22T05:47:03.577Z,89.63
2018-01-22T05:48:03.549Z,89.82
2018-01-22T05:49:03.537Z,90.01
2018-01-22T05:50:03.508Z,89.91
2018-01-22T05:51:03.479Z,90.01
2018-01-22T05:52:03.463Z,90.58
2018-01-22T05:53:03.533Z,90.01
2018-01-22T05:54:03.409Z,90.01
2018-01-22T05:55:03.386Z,90.29
2018-01-22T05:56:03.370Z,90.29
2018-01-22T05:57:03.350Z,90.10
2018-01-22T05:58:03.320Z,89.63
2018-01-22T05:59:03.297Z,89.53
2018-01-22T06:00:03.273Z,89.63
2018-01-22T06:01:03.249Z,89.53
2018-01-22T06:02:03.232Z,89.82
2018-01-22T06:03:03.208Z,89.63
2018-01-22T06:04:03.179Z,89.82
2018-01-22T06:05:03.159Z,89.82
2018-01-22T06:06:03.136Z,89.72
2018-01-22T06:07:03.118Z,89.63
2018-01-22T06:08:03.101Z,89.34
2018-01-22T06:09:03.070Z,89.82
2018-01-22T06:10:03.055Z,90.39
2018-01-22T06:11:03.021Z,89.53
2018-01-22T06:12:02.995Z,89.91
2018-01-22T06:13:02.974Z,89.72
2018-01-22T06:14:02.959Z,89.53
2018-01-22T06:15:02.928Z,89.53
2018-01-22T06:16:02.905Z,89.91
2018-01-22T06:17:02.883Z,89.82
2018-01-22T06:18:02.860Z,89.91
2018-01-22T06:19:02.840Z,90.10
2018-01-22T06:20:02.815Z,90.10
2018-01-22T06:21:02.790Z,90.01
2018-01-22T06:22:02.775Z,90.01
2018-01-22T06:23:02.749Z,90.01
2018-01-22T06:24:02.725Z,90.01
2018-01-22T06:25:02.699Z,89.91
2018-01-22T06:26:02.674Z,90.20
2018-01-22T06:27:02.660Z,89.82
2018-01-22T06:28:02.636Z,89.82
2018-01-22T06:29:02.609Z,89.72
2018-01-22T06:30:02.591Z,90.01
2018-01-22T06:31:02.570Z,89.63
2018-01-22T06:32:02.539Z,89.53
2018-01-22T06:33:02.530Z,89.91
2018-01-22T06:34:02.501Z,90.10
2018-01-22T06:35:02.483Z,90.20
2018-01-22T06:36:02.452Z,89.53
2018-01-22T06:37:02.430Z,89.53
2018-01-22T06:38:02.407Z,89.72
2018-01-22T06:39:02.382Z,89.63
2018-01-22T06:40:02.423Z,89.44
2018-01-22T06:41:02.341Z,89.63
2018-01-22T06:42:02.322Z,89.63
2018-01-22T06:43:02.293Z,90.20
2018-01-22T06:44:02.285Z,90.48
2018-01-22T06:45:02.251Z,90.10
2018-01-22T06:46:02.227Z,90.20
2018-01-22T06:47:02.201Z,90.39
2018-01-22T06:48:02.191Z,90.20
2018-01-22T06:49:02.160Z,90.29
2018-01-22T06:50:02.130Z,90.20
2018-01-22T06:51:02.108Z,90.39
2018-01-22T06:52:02.089Z,90.20
2018-01-22T06:53:02.072Z,90.29
2018-01-22T06:54:02.039Z,90.20
2018-01-22T06:55:02.015Z,89.91
2018-01-22T06:56:02.002Z,89.53
2018-01-22T06:57:01.968Z,89.63
2018-01-22T06:58:01.957Z,89.53
2018-01-22T06:59:01.930Z,89.53
2018-01-22T07:00:01.901Z,89.34
2018-01-22T07:01:01.880Z,89.72
2018-01-22T07:02:01.861Z,89.82
2018-01-22T07:03:01.838Z,89.91
2018-01-22T07:04:01.812Z,89.82
2018-01-22T07:05:01.791Z,89.44
2018-01-22T07:06:01.770Z,89.63
2018-01-22T07:07:01.751Z,89.72
2018-01-22T07:08:01.721Z,89.44
2018-01-22T07:09:01.705Z,89.25
2018-01-22T07:10:01.681Z,89.44
2018-01-22T07:11:01.653Z,89.44
2018-01-22T07:12:01.632Z,89.34
2018-01-22T07:13:01.608Z,89.25
2018-01-22T07:14:01.593Z,89.53
2018-01-22T07:15:01.567Z,89.53
2018-01-22T07:16:01.542Z,89.53
2018-01-22T07:17:01.519Z,89.53
2018-01-22T07:18:01.499Z,89.34
2018-01-22T07:19:01.475Z,89.63
2018-01-22T07:20:01.459Z,89.72
2018-01-22T07:21:01.430Z,89.72
2018-01-22T07:22:01.405Z,89.20
2018-01-22T07:23:01.383Z,89.77
2018-01-22T07:24:01.372Z,89.58
2018-01-22T07:25:01.343Z,89.15
2018-01-22T07:26:01.317Z,89.39
2018-01-22T07:27:01.299Z,89.58
2018-01-22T07:28:01.280Z,89.77
2018-01-22T07:29:01.250Z,89.77
2018-01-22T07:30:01.232Z,89.20
2018-01-22T07:31:01.210Z,88.82
2018-01-22T07:32:01.190Z,89.11
2018-01-22T07:33:01.171Z,88.63
2018-01-22T07:34:01.143Z,88.63
2018-01-22T07:35:01.120Z,89.01
2018-01-22T07:36:01.098Z,89.01
2018-01-22T07:37:01.081Z,88.92
2018-01-22T07:38:01.050Z,89.20
2018-01-22T07:39:01.030Z,88.54
2018-01-22T07:40:01.009Z,88.25
2018-01-22T07:41:00.986Z,88.35
2018-01-22T07:42:00.968Z,88.25
2018-01-22T07:43:00.938Z,89.20
2018-01-22T07:44:00.919Z,89.11
2018-01-22T07:45:00.898Z,89.01
2018-01-22T07:46:00.874Z,89.01
2018-01-22T07:47:00.849Z,88.73
2018-01-22T07:48:00.828Z,88.73
2018-01-22T07:49:00.810Z,89.01
2018-01-22T07:50:00.839Z,89.11
2018-01-22T07:51:00.769Z,89.11
2018-01-22T07:52:00.739Z,88.82
2018-01-22T07:53:00.719Z,89.01
2018-01-22T07:54:00.752Z,88.82
2018-01-22T07:55:00.678Z,88.82
2018-01-22T07:56:00.652Z,88.82
2018-01-22T07:57:00.633Z,89.01
2018-01-22T07:58:00.611Z,89.11
2018-01-22T07:59:00.589Z,89.20
2018-01-22T08:00:00.618Z,88.54
2018-01-22T08:01:00.549Z,88.54
2018-01-22T08:02:00.521Z,88.35
2018-01-22T08:03:00.500Z,88.44
2018-01-22T08:04:00.525Z,88.44
2018-01-22T08:05:00.451Z,88.54
2018-01-22T08:06:00.483Z,88.25
2018-01-22T08:07:00.411Z,88.54
2018-01-22T08:08:00.391Z,88.35
2018-01-22T08:09:00.369Z,88.54
2018-01-22T08:10:00.344Z,88.16
2018-01-22T08:11:00.331Z,88.06
2018-01-22T08:12:00.320Z,88.16
2018-01-22T08:13:00.282Z,88.16
2018-01-22T08:14:00.254Z,87.97
2018-01-22T08:15:00.242Z,88.16
2018-01-22T08:16:00.311Z,87.59
2018-01-22T08:17:00.202Z,87.97
2018-01-22T08:18:00.169Z,87.63
2018-01-22T08:19:00.159Z,87.54
2018-01-22T08:20:00.127Z,87.63
2018-01-22T08:21:00.111Z,87.45
2018-01-22T08:22:00.184Z,87.63
2018-01-22T08:23:00.061Z,87.92
2018-01-22T08:24:00.090Z,87.73
2018-01-22T08:25:00.025Z,87.92
2018-01-22T08:26:00.000Z,87.92
2018-01-22T08:26:59.973Z,88.29
2018-01-22T08:27:59.955Z,88.10
2018-01-22T08:28:59.933Z,88.20
2018-01-22T08:29:59.908Z,88.20
2018-01-22T08:30:59.898Z,87.82
2018-01-22T08:31:59.865Z,87.82
2018-01-22T08:32:59.852Z,87.82
2018-01-22T08:33:59.820Z,87.82
2018-01-22T08:34:59.802Z,87.92
2018-01-22T08:35:59.781Z,87.92
2018-01-22T08:36:59.765Z,88.10
2018-01-22T08:37:59.737Z,88.20
2018-01-22T08:38:59.709Z,88.01
2018-01-22T08:39:59.689Z,88.20
2018-01-22T08:40:59.670Z,87.54
2018-01-22T08:41:59.655Z,87.63
2018-01-22T08:42:59.629Z,87.63
2018-01-22T08:43:59.603Z,87.45
2018-01-22T08:44:59.582Z,87.92
2018-01-22T08:45:59.559Z,88.10
2018-01-22T08:46:59.539Z,88.01
2018-01-22T08:47:59.517Z,87.63
2018-01-22T08:48:59.496Z,87.73
2018-01-22T08:49:59.474Z,87.45
2018-01-22T08:50:59.450Z,87.63
2018-01-22T08:51:59.437Z,87.54
2018-01-22T08:52:59.407Z,87.35
2018-01-22T08:53:59.392Z,87.54
2018-01-22T08:54:59.368Z,88.10
2018-01-22T08:55:59.344Z,87.82
2018-01-22T08:56:59.319Z,88.01
2018-01-22T08:57:59.297Z,87.92
2018-01-22T08:58:59.280Z,88.01
2018-01-22T08:59:59.258Z,87.82
2018-01-22T09:00:59.232Z,87.92
2018-01-22T09:01:59.214Z,87.25
2018-01-22T09:02:59.190Z,87.73
2018-01-22T09:03:59.168Z,87.82
2018-01-22T09:04:59.152Z,87.73
2018-01-22T09:05:59.137Z,87.16
2018-01-22T09:06:59.102Z,87.73
2018-01-22T09:07:59.087Z,87.82
2018-01-22T09:08:59.063Z,87.92
2018-01-22T09:09:59.040Z,88.10
2018-01-22T09:10:59.018Z,88.29
2018-01-22T09:11:58.995Z,88.10
2018-01-22T09:12:58.974Z,88.01
2018-01-22T09:13:58.958Z,88.29
2018-01-22T09:14:58.933Z,88.20
2018-01-22T09:15:58.910Z,88.39
2018-01-22T09:16:58.890Z,88.58
2018-01-22T09:17:58.870Z,88.58
2018-01-22T09:18:58.861Z,88.29
2018-01-22T09:19:58.823Z,88.15
2018-01-22T09:20:58.807Z,88.15
2018-01-22T09:21:58.781Z,87.77
2018-01-22T09:22:58.759Z,87.77
2018-01-22T09:23:58.736Z,87.68
2018-01-22T09:24:58.720Z,87.49
2018-01-22T09:25:58.692Z,87.39
2018-01-22T09:26:58.672Z,87.77
2018-01-22T09:27:58.657Z,87.77
2018-01-22T09:28:58.632Z,87.49
2018-01-22T09:29:58.619Z,87.20
2018-01-22T09:30:58.589Z,87.49
2018-01-22T09:31:58.567Z,87.30
2018-01-22T09:32:58.548Z,87.20
2018-01-22T09:33:58.541Z,87.49
2018-01-22T09:34:58.499Z,87.20
2018-01-22T09:35:58.476Z,87.20
2018-01-22T09:36:58.460Z,87.30
2018-01-22T09:37:58.436Z,87.58
2018-01-22T09:38:58.419Z,87.49
2018-01-22T09:39:58.393Z,87.58
2018-01-22T09:40:58.374Z,87.58
2018-01-22T09:41:58.350Z,87.49
2018-01-22T09:42:58.330Z,87.58
2018-01-22T09:43:58.306Z,87.77
2018-01-22T09:44:58.289Z,87.30
2018-01-22T09:45:58.269Z,87.11
2018-01-22T09:46:58.244Z,87.11
2018-01-22T09:47:58.223Z,86.91
2018-01-22T09:48:58.200Z,87.30
2018-01-22T09:49:58.183Z,86.91
2018-01-22T09:50:58.174Z,87.01
2018-01-22T09:51:58.138Z,87.05
2018-01-22T09:52:58.121Z,86.49
2018-01-22T09:53:58.092Z,86.68
2018-01-22T09:54:58.079Z,86.58
2018-01-22T09:55:58.052Z,86.87
2018-01-22T09:56:58.032Z,86.49
2018-01-22T09:57:58.011Z,86.39
2018-01-22T09:58:57.988Z,86.39
2018-01-22T09:59:57.977Z,86.68
2018-01-22T10:00:57.950Z,86.49
2018-01-22T10:01:57.936Z,86.58
2018-01-22T10:02:57.909Z,86.68
2018-01-22T10:03:57.879Z,86.11
2018-01-22T10:04:57.859Z,86.20
2018-01-22T10:05:57.839Z,85.82
2018-01-22T10:06:57.819Z,85.91
2018-01-22T10:07:57.800Z,86.11
2018-01-22T10:08:57.775Z,86.30
2018-01-22T10:09:57.755Z,86.11
2018-01-22T10:10:57.735Z,86.01
2018-01-22T10:11:57.720Z,86.39
2018-01-22T10:12:57.701Z,86.20
2018-01-22T10:13:57.673Z,86.30
2018-01-22T10:14:57.650Z,85.82
2018-01-22T10:15:57.631Z,85.82
2018-01-22T10:16:57.610Z,86.58
2018-01-22T10:17:57.601Z,86.20
2018-01-22T10:18:57.565Z,86.11
2018-01-22T10:19:57.559Z,86.11
2018-01-22T10:20:57.541Z,86.20
2018-01-22T10:21:57.511Z,85.72
2018-01-22T10:22:57.495Z,86.34
2018-01-22T10:23:57.463Z,86.20
2018-01-22T10:24:57.452Z,86.49
2018-01-22T10:25:57.424Z,86.53
2018-01-22T10:26:57.402Z,86.34
2018-01-22T10:27:57.396Z,85.72
2018-01-22T10:28:57.360Z,85.91
2018-01-22T10:29:57.344Z,85.68
2018-01-22T10:30:57.318Z,85.77
2018-01-22T10:31:57.310Z,85.39
2018-01-22T10:32:57.278Z,85.68
2018-01-22T10:33:57.251Z,85.58
2018-01-22T10:34:57.235Z,85.68
2018-01-22T10:35:57.233Z,85.58
2018-01-22T10:36:57.200Z,85.77
2018-01-22T10:37:57.170Z,85.49
2018-01-22T10:38:57.155Z,85.58
2018-01-22T10:39:57.139Z,85.86
2018-01-22T10:40:57.111Z,85.68
2018-01-22T10:41:57.091Z,85.68
2018-01-22T10:42:57.070Z,85.68
2018-01-22T10:43:57.055Z,85.58
2018-01-22T10:44:57.031Z,85.58
2018-01-22T10:45:57.010Z,85.68
2018-01-22T10:46:56.988Z,85.68
2018-01-22T10:47:56.970Z,85.68
2018-01-22T10:48:56.951Z,85.49
2018-01-22T10:49:56.930Z,85.58
2018-01-22T10:50:56.913Z,85.39
2018-01-22T10:51:56.885Z,85.68
2018-01-22T10:52:56.871Z,85.77
2018-01-22T10:53:56.846Z,85.68
2018-01-22T10:54:56.827Z,85.20
2018-01-22T10:55:56.810Z,85.49
2018-01-22T10:56:56.783Z,85.58
2018-01-22T10:57:56.762Z,85.20
2018-01-22T10:58:56.747Z,85.49
2018-01-22T10:59:56.722Z,85.68
2018-01-22T11:00:56.703Z,85.68
2018-01-22T11:01:56.682Z,85.11
2018-01-22T11:02:56.658Z,85.39
2018-01-22T11:03:56.639Z,85.58
2018-01-22T11:04:56.623Z,85.39
2018-01-22T11:05:56.600Z,85.20
2018-01-22T11:06:56.587Z,85.39
2018-01-22T11:07:56.560Z,85.68
2018-01-22T11:08:56.541Z,85.39
2018-01-22T11:09:56.516Z,85.39
2018-01-22T11:10:56.543Z,85.11
2018-01-22T11:11:56.490Z,85.86
2018-01-22T11:12:56.461Z,85.20
2018-01-22T11:13:56.437Z,85.30
2018-01-22T11:14:56.418Z,85.86
2018-01-22T11:15:56.401Z,85.43
2018-01-22T11:16:56.379Z,85.43
2018-01-22T11:17:56.370Z,85.39
2018-01-22T11:18:56.334Z,84.72
2018-01-22T11:19:56.321Z,84.63
2018-01-22T11:20:56.294Z,85.39
2018-01-22T11:21:56.272Z,85.11
2018-01-22T11:22:56.260Z,85.43
2018-01-22T11:23:56.232Z,85.30
2018-01-22T11:24:56.212Z,85.39
2018-01-22T11:25:56.199Z,85.24
2018-01-22T11:26:56.180Z,84.95
2018-01-22T11:27:56.151Z,85.24
2018-01-22T11:28:56.133Z,84.77
2018-01-22T11:29:56.110Z,85.05
2018-01-22T11:30:56.089Z,85.05
2018-01-22T11:31:56.069Z,85.24
2018-01-22T11:32:56.049Z,85.05
2018-01-22T11:33:56.034Z,85.15
2018-01-22T11:34:56.012Z,85.24
2018-01-22T11:35:55.989Z,84.58
2018-01-22T11:36:55.974Z,84.58
2018-01-22T11:37:55.949Z,84.67
2018-01-22T11:38:55.929Z,84.58
2018-01-22T11:39:55.910Z,84.58
2018-01-22T11:40:55.889Z,84.58
2018-01-22T11:41:55.866Z,85.43
2018-01-22T11:42:55.845Z,85.53
2018-01-22T11:43:55.832Z,85.53
2018-01-22T11:44:55.814Z,85.81
2018-01-22T11:45:55.790Z,85.34
2018-01-22T11:46:55.767Z,84.67
2018-01-22T11:47:55.748Z,85.24
2018-01-22T11:48:55.756Z,84.58
2018-01-22T11:49:55.710Z,85.24
2018-01-22T11:50:55.690Z,85.43
2018-01-22T11:51:55.666Z,85.34
2018-01-22T11:52:55.660Z,85.43
2018-01-22T11:53:55.627Z,85.43
2018-01-22T11:54:55.655Z,85.53
2018-01-22T11:55:55.622Z,84.77
2018-01-22T11:56:55.566Z,84.77
2018-01-22T11:57:55.545Z,84.77
2018-01-22T11:58:55.525Z,84.86
2018-01-22T11:59:55.518Z,85.15
2018-01-22T12:00:55.490Z,85.24
2018-01-22T12:01:55.460Z,85.24
2018-01-22T12:02:55.449Z,84.95
2018-01-22T12:03:55.428Z,85.15
2018-01-22T12:04:55.460Z,85.43
2018-01-22T12:05:55.382Z,84.95
2018-01-22T12:06:55.418Z,85.24
2018-01-22T12:07:55.344Z,85.24
2018-01-22T12:08:55.343Z,85.81
2018-01-22T12:09:55.302Z,85.24
2018-01-22T12:10:55.331Z,85.34
2018-01-22T12:11:55.271Z,85.34
2018-01-22T12:12:55.294Z,85.43
2018-01-22T12:13:55.231Z,85.62
2018-01-22T12:14:55.206Z,85.62
2018-01-22T12:15:55.188Z,85.43
2018-01-22T12:16:55.214Z,85.72
2018-01-22T12:17:55.150Z,85.24
2018-01-22T12:18:55.185Z,85.34
2018-01-22T12:19:55.115Z,85.72
2018-01-22T12:20:55.091Z,85.34
2018-01-22T12:21:55.062Z,85.62
2018-01-22T12:22:55.049Z,85.53
2018-01-22T12:23:55.031Z,85.53
2018-01-22T12:24:55.016Z,85.91
2018-01-22T12:25:54.991Z,85.62
2018-01-22T12:26:54.963Z,85.24
2018-01-22T12:27:54.960Z,85.53
2018-01-22T12:28:54.928Z,84.52
2018-01-22T12:29:54.910Z,84.91
2018-01-22T12:30:54.889Z,85.47
2018-01-22T12:31:54.871Z,86.14
2018-01-22T12:32:54.849Z,85.28
2018-01-22T12:33:54.840Z,86.80
2018-01-22T12:34:54.805Z,85.80
2018-01-22T12:35:54.793Z,86.66
2018-01-22T12:36:54.770Z,85.61
2018-01-22T12:37:54.748Z,85.61
2018-01-22T12:38:54.736Z,86.47
2018-01-22T12:39:54.710Z,86.32
2018-01-22T12:40:54.691Z,86.32
2018-01-22T12:41:54.674Z,86.99
2018-01-22T12:42:54.662Z,86.70
2018-01-22T12:43:54.634Z,86.57
2018-01-22T12:44:54.615Z,86.57
2018-01-22T12:45:54.593Z,85.99
2018-01-22T12:46:54.583Z,85.80
2018-01-22T12:47:54.559Z,86.47
2018-01-22T12:48:54.540Z,86.38
2018-01-22T12:49:54.515Z,86.47
2018-01-22T12:50:54.500Z,85.71
2018-01-22T12:51:54.477Z,86.47